sensor_id;sensor_type;location;lat;lon;timestamp;temperature;humidity
28546;DHT22;15749;49.606;8.738;2024-03-08T00:01:46;13.60;1.00
28546;DHT22;15749;49.606;8.738;2024-03-08T00:04:15;13.60;1.00
28546;DHT22;15749;49.606;8.738;2024-03-08T00:06:44;13.60;1.00
28546;DHT22;15749;49.606;8.738;2024-03-08T00:09:15;13.60;1.00
28546;DHT22;15749;49.606;8.738;2024-03-08T00:11:44;13.60;1.00
28546;DHT22;15749;49.606;8.738;2024-03-08T00:14:14;13.60;1.00
28546;DHT22;15749;49.606;8.738;2024-03-08T00:16:43;13.60;1.00
28546;DHT22;15749;49.606;8.738;2024-03-08T00:19:12;13.60;1.00
28546;DHT22;15749;49.606;8.738;2024-03-08T00:21:42;13.60;1.00
28546;DHT22;15749;49.606;8.738;2024-03-08T00:24:11;13.60;1.00
28546;DHT22;15749;49.606;8.738;2024-03-08T00:26:42;13.50;1.00
28546;DHT22;15749;49.606;8.738;2024-03-08T00:29:11;13.60;1.00
28546;DHT22;15749;49.606;8.738;2024-03-08T00:31:40;13.50;1.00
28546;DHT22;15749;49.606;8.738;2024-03-08T00:34:10;13.50;1.00
28546;DHT22;15749;49.606;8.738;2024-03-08T00:36:39;13.50;1.00
28546;DHT22;15749;49.606;8.738;2024-03-08T00:39:08;13.50;1.00
28546;DHT22;15749;49.606;8.738;2024-03-08T00:41:37;13.50;1.00
28546;DHT22;15749;49.606;8.738;2024-03-08T00:44:08;13.50;1.00
28546;DHT22;15749;49.606;8.738;2024-03-08T00:46:37;13.50;1.00
28546;DHT22;15749;49.606;8.738;2024-03-08T00:49:06;13.50;1.00
28546;DHT22;15749;49.606;8.738;2024-03-08T00:51:35;13.50;1.00
28546;DHT22;15749;49.606;8.738;2024-03-08T00:54:05;13.50;1.00
28546;DHT22;15749;49.606;8.738;2024-03-08T00:56:34;13.50;1.00
28546;DHT22;15749;49.606;8.738;2024-03-08T00:59:03;13.40;1.00
28546;DHT22;15749;49.606;8.738;2024-03-08T01:01:34;13.40;1.00
28546;DHT22;15749;49.606;8.738;2024-03-08T01:04:03;13.40;1.00
28546;DHT22;15749;49.606;8.738;2024-03-08T01:06:32;13.40;1.00
28546;DHT22;15749;49.606;8.738;2024-03-08T01:09:01;13.40;1.00
28546;DHT22;15749;49.606;8.738;2024-03-08T01:11:30;13.40;1.00
28546;DHT22;15749;49.606;8.738;2024-03-08T01:13:59;13.40;1.00
28546;DHT22;15749;49.606;8.738;2024-03-08T01:16:29;13.30;1.00
28546;DHT22;15749;49.606;8.738;2024-03-08T01:19:00;13.30;1.00
28546;DHT22;15749;49.606;8.738;2024-03-08T01:21:29;13.20;1.00
28546;DHT22;15749;49.606;8.738;2024-03-08T01:23:58;13.20;1.00
28546;DHT22;15749;49.606;8.738;2024-03-08T01:26:27;13.20;1.00
28546;DHT22;15749;49.606;8.738;2024-03-08T01:28:56;13.20;1.00
28546;DHT22;15749;49.606;8.738;2024-03-08T01:31:26;13.10;1.00
28546;DHT22;15749;49.606;8.738;2024-03-08T01:33:56;13.10;1.00
28546;DHT22;15749;49.606;8.738;2024-03-08T01:36:26;13.10;1.00
28546;DHT22;15749;49.606;8.738;2024-03-08T01:38:55;13.00;1.00
28546;DHT22;15749;49.606;8.738;2024-03-08T01:41:25;13.00;1.00
28546;DHT22;15749;49.606;8.738;2024-03-08T01:43:57;13.00;1.00
28546;DHT22;15749;49.606;8.738;2024-03-08T01:46:26;12.90;1.00
28546;DHT22;15749;49.606;8.738;2024-03-08T01:48:56;12.90;1.00
28546;DHT22;15749;49.606;8.738;2024-03-08T01:51:27;12.90;1.00
28546;DHT22;15749;49.606;8.738;2024-03-08T01:53:57;12.90;1.00
28546;DHT22;15749;49.606;8.738;2024-03-08T01:56:26;12.80;1.00
28546;DHT22;15749;49.606;8.738;2024-03-08T01:58:55;12.80;1.00
28546;DHT22;15749;49.606;8.738;2024-03-08T02:01:25;12.80;1.00
28546;DHT22;15749;49.606;8.738;2024-03-08T02:03:54;12.80;1.00
28546;DHT22;15749;49.606;8.738;2024-03-08T02:06:23;12.80;1.00
28546;DHT22;15749;49.606;8.738;2024-03-08T02:08:54;12.80;1.00
28546;DHT22;15749;49.606;8.738;2024-03-08T02:11:23;12.80;1.00
28546;DHT22;15749;49.606;8.738;2024-03-08T02:13:52;12.80;1.00
28546;DHT22;15749;49.606;8.738;2024-03-08T02:16:22;12.80;1.00
28546;DHT22;15749;49.606;8.738;2024-03-08T02:18:51;12.70;1.00
28546;DHT22;15749;49.606;8.738;2024-03-08T02:21:21;12.70;1.00
28546;DHT22;15749;49.606;8.738;2024-03-08T02:23:50;12.70;1.00
28546;DHT22;15749;49.606;8.738;2024-03-08T02:26:20;12.70;1.00
28546;DHT22;15749;49.606;8.738;2024-03-08T02:28:50;12.70;1.00
28546;DHT22;15749;49.606;8.738;2024-03-08T02:31:19;12.70;1.00
28546;DHT22;15749;49.606;8.738;2024-03-08T02:33:49;12.70;1.00
28546;DHT22;15749;49.606;8.738;2024-03-08T02:36:18;12.70;1.00
28546;DHT22;15749;49.606;8.738;2024-03-08T02:38:49;12.70;1.00
28546;DHT22;15749;49.606;8.738;2024-03-08T02:41:18;12.70;1.00
28546;DHT22;15749;49.606;8.738;2024-03-08T02:43:47;12.70;1.00
28546;DHT22;15749;49.606;8.738;2024-03-08T02:46:17;12.70;1.00
28546;DHT22;15749;49.606;8.738;2024-03-08T02:48:46;12.70;1.00
28546;DHT22;15749;49.606;8.738;2024-03-08T02:51:15;12.70;1.00
28546;DHT22;15749;49.606;8.738;2024-03-08T02:53:44;12.70;1.00
28546;DHT22;15749;49.606;8.738;2024-03-08T02:56:18;12.70;1.00
28546;DHT22;15749;49.606;8.738;2024-03-08T02:58:47;12.70;1.00
28546;DHT22;15749;49.606;8.738;2024-03-08T03:01:16;12.70;1.00
28546;DHT22;15749;49.606;8.738;2024-03-08T03:03:48;12.70;1.00
28546;DHT22;15749;49.606;8.738;2024-03-08T03:06:17;12.70;1.00
28546;DHT22;15749;49.606;8.738;2024-03-08T03:08:48;12.70;1.00
28546;DHT22;15749;49.606;8.738;2024-03-08T03:11:20;12.60;1.00
28546;DHT22;15749;49.606;8.738;2024-03-08T03:13:49;12.60;1.00
28546;DHT22;15749;49.606;8.738;2024-03-08T03:16:18;12.70;1.00
28546;DHT22;15749;49.606;8.738;2024-03-08T03:18:48;12.60;1.00
28546;DHT22;15749;49.606;8.738;2024-03-08T03:21:17;12.60;1.00
28546;DHT22;15749;49.606;8.738;2024-03-08T03:23:46;12.60;1.00
28546;DHT22;15749;49.606;8.738;2024-03-08T03:26:16;12.60;1.00
28546;DHT22;15749;49.606;8.738;2024-03-08T03:28:46;12.60;1.00
28546;DHT22;15749;49.606;8.738;2024-03-08T03:31:15;12.60;1.00
28546;DHT22;15749;49.606;8.738;2024-03-08T03:33:46;12.60;1.00
28546;DHT22;15749;49.606;8.738;2024-03-08T03:36:15;12.60;1.00
28546;DHT22;15749;49.606;8.738;2024-03-08T03:38:44;12.60;1.00
28546;DHT22;15749;49.606;8.738;2024-03-08T03:41:14;12.60;1.00
28546;DHT22;15749;49.606;8.738;2024-03-08T03:43:43;12.60;1.00
28546;DHT22;15749;49.606;8.738;2024-03-08T03:46:13;12.60;1.00
28546;DHT22;15749;49.606;8.738;2024-03-08T03:48:42;12.60;1.00
28546;DHT22;15749;49.606;8.738;2024-03-08T03:51:11;12.50;1.00
28546;DHT22;15749;49.606;8.738;2024-03-08T03:53:43;12.50;1.00
28546;DHT22;15749;49.606;8.738;2024-03-08T03:56:12;12.50;1.00
28546;DHT22;15749;49.606;8.738;2024-03-08T03:58:41;12.50;1.00
28546;DHT22;15749;49.606;8.738;2024-03-08T04:01:10;12.50;1.00
28546;DHT22;15749;49.606;8.738;2024-03-08T04:03:42;12.50;1.00
28546;DHT22;15749;49.606;8.738;2024-03-08T04:06:11;12.50;1.00
28546;DHT22;15749;49.606;8.738;2024-03-08T04:08:42;12.50;1.00
28546;DHT22;15749;49.606;8.738;2024-03-08T04:11:11;12.50;1.00
28546;DHT22;15749;49.606;8.738;2024-03-08T04:13:40;12.50;1.00
28546;DHT22;15749;49.606;8.738;2024-03-08T04:16:09;12.50;1.00
28546;DHT22;15749;49.606;8.738;2024-03-08T04:18:39;12.50;1.00
28546;DHT22;15749;49.606;8.738;2024-03-08T04:21:09;12.40;1.00
28546;DHT22;15749;49.606;8.738;2024-03-08T04:23:39;12.40;1.00
28546;DHT22;15749;49.606;8.738;2024-03-08T04:26:08;12.40;1.00
28546;DHT22;15749;49.606;8.738;2024-03-08T04:28:37;12.40;1.00
28546;DHT22;15749;49.606;8.738;2024-03-08T04:31:07;12.40;1.00
28546;DHT22;15749;49.606;8.738;2024-03-08T04:33:36;12.40;1.00
28546;DHT22;15749;49.606;8.738;2024-03-08T04:36:08;12.40;1.00
28546;DHT22;15749;49.606;8.738;2024-03-08T04:38:41;12.40;1.00
28546;DHT22;15749;49.606;8.738;2024-03-08T04:41:10;12.40;1.00
28546;DHT22;15749;49.606;8.738;2024-03-08T04:43:39;12.40;1.00
28546;DHT22;15749;49.606;8.738;2024-03-08T04:46:08;12.40;1.00
28546;DHT22;15749;49.606;8.738;2024-03-08T04:48:37;12.40;1.00
28546;DHT22;15749;49.606;8.738;2024-03-08T04:51:07;12.40;1.00
28546;DHT22;15749;49.606;8.738;2024-03-08T04:53:37;12.40;1.00
28546;DHT22;15749;49.606;8.738;2024-03-08T04:56:06;12.40;1.00
28546;DHT22;15749;49.606;8.738;2024-03-08T04:58:36;12.30;1.00
28546;DHT22;15749;49.606;8.738;2024-03-08T05:01:05;12.30;1.00
28546;DHT22;15749;49.606;8.738;2024-03-08T05:03:34;12.30;1.00
28546;DHT22;15749;49.606;8.738;2024-03-08T05:06:03;12.30;1.00
28546;DHT22;15749;49.606;8.738;2024-03-08T05:08:32;12.30;1.00
28546;DHT22;15749;49.606;8.738;2024-03-08T05:11:03;12.30;1.00
28546;DHT22;15749;49.606;8.738;2024-03-08T05:13:35;12.30;1.00
28546;DHT22;15749;49.606;8.738;2024-03-08T05:16:05;12.20;1.00
28546;DHT22;15749;49.606;8.738;2024-03-08T05:18:35;12.20;1.00
28546;DHT22;15749;49.606;8.738;2024-03-08T05:21:04;12.20;1.00
28546;DHT22;15749;49.606;8.738;2024-03-08T05:23:33;12.20;1.00
28546;DHT22;15749;49.606;8.738;2024-03-08T05:40:07;12.20;1.00
28546;DHT22;15749;49.606;8.738;2024-03-08T05:42:44;11.80;1.00
28546;DHT22;15749;49.606;8.738;2024-03-08T05:45:13;12.00;1.00
28546;DHT22;15749;49.606;8.738;2024-03-08T05:47:43;12.20;1.00
28546;DHT22;15749;49.606;8.738;2024-03-08T05:50:12;12.30;1.00
28546;DHT22;15749;49.606;8.738;2024-03-08T05:52:43;12.30;1.00
28546;DHT22;15749;49.606;8.738;2024-03-08T05:55:14;12.40;1.00
28546;DHT22;15749;49.606;8.738;2024-03-08T05:57:43;12.40;1.00
28546;DHT22;15749;49.606;8.738;2024-03-08T06:00:12;12.30;1.00
28546;DHT22;15749;49.606;8.738;2024-03-08T06:02:43;12.40;1.00
28546;DHT22;15749;49.606;8.738;2024-03-08T06:05:12;12.40;1.00
28546;DHT22;15749;49.606;8.738;2024-03-08T06:07:41;12.30;1.00
28546;DHT22;15749;49.606;8.738;2024-03-08T06:10:11;12.30;1.00
28546;DHT22;15749;49.606;8.738;2024-03-08T06:12:42;12.30;1.00
28546;DHT22;15749;49.606;8.738;2024-03-08T06:15:11;12.30;1.00
28546;DHT22;15749;49.606;8.738;2024-03-08T06:17:43;12.30;1.00
28546;DHT22;15749;49.606;8.738;2024-03-08T06:20:12;12.20;1.00
28546;DHT22;15749;49.606;8.738;2024-03-08T06:22:42;12.20;1.00
28546;DHT22;15749;49.606;8.738;2024-03-08T06:25:12;12.20;1.00
28546;DHT22;15749;49.606;8.738;2024-03-08T06:27:44;12.20;1.00
28546;DHT22;15749;49.606;8.738;2024-03-08T06:30:15;12.20;1.00
28546;DHT22;15749;49.606;8.738;2024-03-08T06:32:44;12.20;1.00
28546;DHT22;15749;49.606;8.738;2024-03-08T06:35:13;12.20;1.00
28546;DHT22;15749;49.606;8.738;2024-03-08T06:37:44;12.10;1.00
28546;DHT22;15749;49.606;8.738;2024-03-08T06:40:13;12.10;1.00
28546;DHT22;15749;49.606;8.738;2024-03-08T06:42:44;12.10;1.00
28546;DHT22;15749;49.606;8.738;2024-03-08T06:45:13;12.10;1.00
28546;DHT22;15749;49.606;8.738;2024-03-08T06:47:47;12.10;1.00
28546;DHT22;15749;49.606;8.738;2024-03-08T06:50:16;12.10;1.00
28546;DHT22;15749;49.606;8.738;2024-03-08T06:52:45;12.10;1.00
28546;DHT22;15749;49.606;8.738;2024-03-08T06:55:19;12.10;1.00
28546;DHT22;15749;49.606;8.738;2024-03-08T06:57:49;12.10;1.00
28546;DHT22;15749;49.606;8.738;2024-03-08T07:00:18;12.10;1.00
28546;DHT22;15749;49.606;8.738;2024-03-08T07:02:48;12.10;1.00
28546;DHT22;15749;49.606;8.738;2024-03-08T07:05:18;12.10;1.00
28546;DHT22;15749;49.606;8.738;2024-03-08T07:07:47;12.10;1.00
28546;DHT22;15749;49.606;8.738;2024-03-08T07:10:17;12.10;1.00
28546;DHT22;15749;49.606;8.738;2024-03-08T07:12:47;12.20;1.00
28546;DHT22;15749;49.606;8.738;2024-03-08T07:15:17;12.20;1.00
28546;DHT22;15749;49.606;8.738;2024-03-08T07:17:47;12.20;1.00
28546;DHT22;15749;49.606;8.738;2024-03-08T07:20:17;12.20;1.00
28546;DHT22;15749;49.606;8.738;2024-03-08T07:22:47;12.20;1.00
28546;DHT22;15749;49.606;8.738;2024-03-08T07:25:19;12.20;1.00
28546;DHT22;15749;49.606;8.738;2024-03-08T07:27:51;12.30;1.00
28546;DHT22;15749;49.606;8.738;2024-03-08T07:30:23;12.30;1.00
28546;DHT22;15749;49.606;8.738;2024-03-08T07:33:11;12.30;1.00
28546;DHT22;15749;49.606;8.738;2024-03-08T07:35:41;12.40;1.00
28546;DHT22;15749;49.606;8.738;2024-03-08T07:38:12;12.40;1.00
28546;DHT22;15749;49.606;8.738;2024-03-08T07:40:41;12.40;1.00
28546;DHT22;15749;49.606;8.738;2024-03-08T07:43:12;12.40;1.00
28546;DHT22;15749;49.606;8.738;2024-03-08T07:45:43;12.50;1.00
28546;DHT22;15749;49.606;8.738;2024-03-08T07:48:12;12.50;1.00
28546;DHT22;15749;49.606;8.738;2024-03-08T07:50:41;12.50;1.00
28546;DHT22;15749;49.606;8.738;2024-03-08T07:53:10;12.60;1.00
28546;DHT22;15749;49.606;8.738;2024-03-08T07:55:39;12.60;1.00
28546;DHT22;15749;49.606;8.738;2024-03-08T07:58:10;12.70;1.00
28546;DHT22;15749;49.606;8.738;2024-03-08T08:00:42;12.70;1.00
28546;DHT22;15749;49.606;8.738;2024-03-08T08:03:11;12.70;1.00
28546;DHT22;15749;49.606;8.738;2024-03-08T08:05:41;12.80;1.00
28546;DHT22;15749;49.606;8.738;2024-03-08T08:08:10;12.80;1.00
28546;DHT22;15749;49.606;8.738;2024-03-08T08:10:39;12.90;1.00
28546;DHT22;15749;49.606;8.738;2024-03-08T08:13:08;12.90;1.00
28546;DHT22;15749;49.606;8.738;2024-03-08T08:15:39;12.90;1.00
28546;DHT22;15749;49.606;8.738;2024-03-08T08:18:09;12.90;1.00
28546;DHT22;15749;49.606;8.738;2024-03-08T08:20:38;13.00;1.00
28546;DHT22;15749;49.606;8.738;2024-03-08T08:23:07;13.00;1.00
28546;DHT22;15749;49.606;8.738;2024-03-08T08:25:39;13.10;1.00
28546;DHT22;15749;49.606;8.738;2024-03-08T08:28:08;13.10;1.00
28546;DHT22;15749;49.606;8.738;2024-03-08T08:30:37;13.10;1.00
28546;DHT22;15749;49.606;8.738;2024-03-08T08:33:06;13.20;1.00
28546;DHT22;15749;49.606;8.738;2024-03-08T08:35:37;13.20;1.00
28546;DHT22;15749;49.606;8.738;2024-03-08T08:38:07;13.20;1.00
28546;DHT22;15749;49.606;8.738;2024-03-08T08:40:36;13.30;1.00
28546;DHT22;15749;49.606;8.738;2024-03-08T08:43:05;13.30;1.00
28546;DHT22;15749;49.606;8.738;2024-03-08T08:45:35;13.40;1.00
28546;DHT22;15749;49.606;8.738;2024-03-08T08:48:04;13.50;1.00
28546;DHT22;15749;49.606;8.738;2024-03-08T08:50:34;13.50;1.00
28546;DHT22;15749;49.606;8.738;2024-03-08T08:53:05;13.50;1.00
28546;DHT22;15749;49.606;8.738;2024-03-08T08:55:35;13.60;1.00
28546;DHT22;15749;49.606;8.738;2024-03-08T08:58:04;13.70;1.00
28546;DHT22;15749;49.606;8.738;2024-03-08T09:00:34;13.70;1.00
28546;DHT22;15749;49.606;8.738;2024-03-08T09:03:04;13.80;1.00
28546;DHT22;15749;49.606;8.738;2024-03-08T09:05:34;13.90;1.00
28546;DHT22;15749;49.606;8.738;2024-03-08T09:08:07;13.90;1.00
28546;DHT22;15749;49.606;8.738;2024-03-08T09:10:37;13.90;1.00
28546;DHT22;15749;49.606;8.738;2024-03-08T09:13:07;14.00;1.00
28546;DHT22;15749;49.606;8.738;2024-03-08T09:15:45;14.00;1.00
28546;DHT22;15749;49.606;8.738;2024-03-08T09:18:15;14.10;1.00
28546;DHT22;15749;49.606;8.738;2024-03-08T09:20:44;14.10;1.00
28546;DHT22;15749;49.606;8.738;2024-03-08T09:23:16;14.20;1.00
28546;DHT22;15749;49.606;8.738;2024-03-08T09:25:45;14.20;1.00
28546;DHT22;15749;49.606;8.738;2024-03-08T09:28:15;14.30;1.00
28546;DHT22;15749;49.606;8.738;2024-03-08T09:30:44;14.30;1.00
28546;DHT22;15749;49.606;8.738;2024-03-08T09:33:26;14.40;1.00
28546;DHT22;15749;49.606;8.738;2024-03-08T09:35:56;14.40;1.00
28546;DHT22;15749;49.606;8.738;2024-03-08T09:38:31;14.50;1.00
28546;DHT22;15749;49.606;8.738;2024-03-08T09:41:02;14.50;1.00
28546;DHT22;15749;49.606;8.738;2024-03-08T09:43:32;14.60;1.00
28546;DHT22;15749;49.606;8.738;2024-03-08T09:46:02;14.60;1.00
28546;DHT22;15749;49.606;8.738;2024-03-08T09:48:34;14.60;1.00
28546;DHT22;15749;49.606;8.738;2024-03-08T09:51:04;14.70;1.00
28546;DHT22;15749;49.606;8.738;2024-03-08T09:53:36;14.70;1.00
28546;DHT22;15749;49.606;8.738;2024-03-08T09:56:06;14.80;1.00
28546;DHT22;15749;49.606;8.738;2024-03-08T09:58:35;14.80;1.00
28546;DHT22;15749;49.606;8.738;2024-03-08T10:01:21;14.90;1.00
28546;DHT22;15749;49.606;8.738;2024-03-08T10:03:52;14.90;1.00
28546;DHT22;15749;49.606;8.738;2024-03-08T10:06:23;15.00;1.00
28546;DHT22;15749;49.606;8.738;2024-03-08T10:08:54;15.00;1.00
28546;DHT22;15749;49.606;8.738;2024-03-08T10:11:23;15.10;1.00
28546;DHT22;15749;49.606;8.738;2024-03-08T10:13:53;15.10;1.00
28546;DHT22;15749;49.606;8.738;2024-03-08T10:16:23;15.10;1.00
28546;DHT22;15749;49.606;8.738;2024-03-08T10:18:52;15.20;1.00
28546;DHT22;15749;49.606;8.738;2024-03-08T10:21:21;15.20;1.00
28546;DHT22;15749;49.606;8.738;2024-03-08T10:23:51;15.20;1.00
28546;DHT22;15749;49.606;8.738;2024-03-08T10:26:21;15.30;1.00
28546;DHT22;15749;49.606;8.738;2024-03-08T10:28:52;15.40;1.00
28546;DHT22;15749;49.606;8.738;2024-03-08T10:31:21;15.40;1.00
28546;DHT22;15749;49.606;8.738;2024-03-08T10:33:50;15.50;1.00
28546;DHT22;15749;49.606;8.738;2024-03-08T10:36:19;15.50;1.00
28546;DHT22;15749;49.606;8.738;2024-03-08T10:38:51;15.50;1.00
28546;DHT22;15749;49.606;8.738;2024-03-08T10:41:24;15.60;1.00
28546;DHT22;15749;49.606;8.738;2024-03-08T10:44:08;15.60;1.00
28546;DHT22;15749;49.606;8.738;2024-03-08T10:46:52;15.70;1.00
28546;DHT22;15749;49.606;8.738;2024-03-08T10:49:29;15.70;1.00
28546;DHT22;15749;49.606;8.738;2024-03-08T10:51:59;15.70;1.00
28546;DHT22;15749;49.606;8.738;2024-03-08T10:54:31;15.80;1.00
28546;DHT22;15749;49.606;8.738;2024-03-08T10:57:03;15.80;1.00
28546;DHT22;15749;49.606;8.738;2024-03-08T10:59:35;15.80;1.00
28546;DHT22;15749;49.606;8.738;2024-03-08T11:02:05;15.90;1.00
28546;DHT22;15749;49.606;8.738;2024-03-08T11:04:37;15.90;1.00
28546;DHT22;15749;49.606;8.738;2024-03-08T11:07:06;15.90;1.00
28546;DHT22;15749;49.606;8.738;2024-03-08T11:09:36;16.00;1.00
28546;DHT22;15749;49.606;8.738;2024-03-08T11:12:24;16.10;1.00
28546;DHT22;15749;49.606;8.738;2024-03-08T11:15:00;16.10;1.00
28546;DHT22;15749;49.606;8.738;2024-03-08T11:17:45;16.20;1.00
28546;DHT22;15749;49.606;8.738;2024-03-08T11:20:17;16.20;1.00
28546;DHT22;15749;49.606;8.738;2024-03-08T11:22:49;16.20;1.00
28546;DHT22;15749;49.606;8.738;2024-03-08T11:25:34;16.30;1.00
28546;DHT22;15749;49.606;8.738;2024-03-08T11:28:13;16.40;1.00
28546;DHT22;15749;49.606;8.738;2024-03-08T11:33:40;16.40;1.00
28546;DHT22;15749;49.606;8.738;2024-03-08T11:36:12;16.50;1.00
28546;DHT22;15749;49.606;8.738;2024-03-08T11:38:44;16.60;1.00
28546;DHT22;15749;49.606;8.738;2024-03-08T11:41:17;16.60;1.00
28546;DHT22;15749;49.606;8.738;2024-03-08T11:43:49;16.70;1.00
28546;DHT22;15749;49.606;8.738;2024-03-08T11:46:19;16.70;1.00
28546;DHT22;15749;49.606;8.738;2024-03-08T11:48:48;16.70;1.00
28546;DHT22;15749;49.606;8.738;2024-03-08T11:51:18;16.70;1.00
28546;DHT22;15749;49.606;8.738;2024-03-08T11:53:49;16.70;1.00
28546;DHT22;15749;49.606;8.738;2024-03-08T11:56:19;16.70;1.00
28546;DHT22;15749;49.606;8.738;2024-03-08T11:58:54;16.70;1.00
28546;DHT22;15749;49.606;8.738;2024-03-08T12:01:25;16.70;1.00
28546;DHT22;15749;49.606;8.738;2024-03-08T12:03:56;16.70;1.00
28546;DHT22;15749;49.606;8.738;2024-03-08T12:06:36;16.70;1.00
28546;DHT22;15749;49.606;8.738;2024-03-08T12:09:10;16.70;1.00
28546;DHT22;15749;49.606;8.738;2024-03-08T12:11:40;16.70;1.00
28546;DHT22;15749;49.606;8.738;2024-03-08T12:14:12;16.80;1.00
28546;DHT22;15749;49.606;8.738;2024-03-08T12:16:42;16.70;1.00
28546;DHT22;15749;49.606;8.738;2024-03-08T12:19:11;16.70;1.00
28546;DHT22;15749;49.606;8.738;2024-03-08T12:21:42;16.80;1.00
28546;DHT22;15749;49.606;8.738;2024-03-08T12:24:17;16.80;1.00
28546;DHT22;15749;49.606;8.738;2024-03-08T12:26:47;16.80;1.00
28546;DHT22;15749;49.606;8.738;2024-03-08T12:29:23;16.80;1.00
28546;DHT22;15749;49.606;8.738;2024-03-08T12:31:57;16.80;1.00
28546;DHT22;15749;49.606;8.738;2024-03-08T12:34:29;16.80;1.00
28546;DHT22;15749;49.606;8.738;2024-03-08T12:36:59;16.90;1.00
28546;DHT22;15749;49.606;8.738;2024-03-08T12:39:30;16.90;1.00
28546;DHT22;15749;49.606;8.738;2024-03-08T12:41:59;16.90;1.00
28546;DHT22;15749;49.606;8.738;2024-03-08T12:44:30;17.00;1.00
28546;DHT22;15749;49.606;8.738;2024-03-08T12:46:59;17.00;1.00
28546;DHT22;15749;49.606;8.738;2024-03-08T12:49:29;17.10;1.00
28546;DHT22;15749;49.606;8.738;2024-03-08T12:51:58;17.10;1.00
28546;DHT22;15749;49.606;8.738;2024-03-08T12:54:28;17.10;1.00
28546;DHT22;15749;49.606;8.738;2024-03-08T12:56:58;17.10;1.00
28546;DHT22;15749;49.606;8.738;2024-03-08T12:59:27;17.10;1.00
28546;DHT22;15749;49.606;8.738;2024-03-08T13:01:58;17.10;1.00
28546;DHT22;15749;49.606;8.738;2024-03-08T13:04:27;17.10;1.00
28546;DHT22;15749;49.606;8.738;2024-03-08T13:06:59;17.10;1.00
28546;DHT22;15749;49.606;8.738;2024-03-08T13:09:29;17.10;1.00
28546;DHT22;15749;49.606;8.738;2024-03-08T13:11:59;17.10;1.00
28546;DHT22;15749;49.606;8.738;2024-03-08T13:14:28;17.10;1.00
28546;DHT22;15749;49.606;8.738;2024-03-08T13:17:01;17.10;1.00
28546;DHT22;15749;49.606;8.738;2024-03-08T13:19:31;17.00;1.00
28546;DHT22;15749;49.606;8.738;2024-03-08T13:22:01;17.00;1.00
28546;DHT22;15749;49.606;8.738;2024-03-08T13:24:33;17.00;1.00
28546;DHT22;15749;49.606;8.738;2024-03-08T13:27:02;17.00;1.00
28546;DHT22;15749;49.606;8.738;2024-03-08T13:29:44;17.00;1.00
28546;DHT22;15749;49.606;8.738;2024-03-08T13:32:16;16.90;1.00
28546;DHT22;15749;49.606;8.738;2024-03-08T13:34:45;16.90;1.00
28546;DHT22;15749;49.606;8.738;2024-03-08T13:37:15;16.90;1.00
28546;DHT22;15749;49.606;8.738;2024-03-08T13:39:44;16.90;1.00
28546;DHT22;15749;49.606;8.738;2024-03-08T13:42:13;16.80;1.00
28546;DHT22;15749;49.606;8.738;2024-03-08T13:44:44;16.80;1.00
28546;DHT22;15749;49.606;8.738;2024-03-08T13:47:16;16.80;1.00
28546;DHT22;15749;49.606;8.738;2024-03-08T13:49:45;16.80;1.00
28546;DHT22;15749;49.606;8.738;2024-03-08T13:52:15;16.80;1.00
28546;DHT22;15749;49.606;8.738;2024-03-08T13:54:44;16.70;1.00
28546;DHT22;15749;49.606;8.738;2024-03-08T13:57:13;16.70;1.00
28546;DHT22;15749;49.606;8.738;2024-03-08T13:59:42;16.70;1.00
28546;DHT22;15749;49.606;8.738;2024-03-08T14:02:11;16.70;1.00
28546;DHT22;15749;49.606;8.738;2024-03-08T14:04:43;16.60;1.00
28546;DHT22;15749;49.606;8.738;2024-03-08T14:07:12;16.60;1.00
28546;DHT22;15749;49.606;8.738;2024-03-08T14:09:41;16.60;1.00
28546;DHT22;15749;49.606;8.738;2024-03-08T14:12:11;16.50;1.00
28546;DHT22;15749;49.606;8.738;2024-03-08T14:14:41;16.50;1.00
28546;DHT22;15749;49.606;8.738;2024-03-08T14:17:12;16.50;1.00
28546;DHT22;15749;49.606;8.738;2024-03-08T14:19:46;16.50;1.00
28546;DHT22;15749;49.606;8.738;2024-03-08T14:22:15;16.40;1.00
28546;DHT22;15749;49.606;8.738;2024-03-08T14:24:44;16.40;1.00
28546;DHT22;15749;49.606;8.738;2024-03-08T14:27:13;16.40;1.00
28546;DHT22;15749;49.606;8.738;2024-03-08T14:29:48;16.40;1.00
28546;DHT22;15749;49.606;8.738;2024-03-08T14:32:17;16.30;1.00
28546;DHT22;15749;49.606;8.738;2024-03-08T14:34:49;16.40;1.00
28546;DHT22;15749;49.606;8.738;2024-03-08T14:37:18;16.40;1.00
28546;DHT22;15749;49.606;8.738;2024-03-08T14:39:51;16.30;1.00
28546;DHT22;15749;49.606;8.738;2024-03-08T14:42:20;16.30;1.00
28546;DHT22;15749;49.606;8.738;2024-03-08T14:44:49;16.30;1.00
28546;DHT22;15749;49.606;8.738;2024-03-08T14:47:20;16.30;1.00
28546;DHT22;15749;49.606;8.738;2024-03-08T14:49:51;16.20;1.00
28546;DHT22;15749;49.606;8.738;2024-03-08T14:52:20;16.20;1.00
28546;DHT22;15749;49.606;8.738;2024-03-08T14:54:58;16.20;1.00
28546;DHT22;15749;49.606;8.738;2024-03-08T14:57:27;16.20;1.00
28546;DHT22;15749;49.606;8.738;2024-03-08T15:00:00;16.20;1.00
28546;DHT22;15749;49.606;8.738;2024-03-08T15:02:33;16.20;1.00
28546;DHT22;15749;49.606;8.738;2024-03-08T15:05:06;16.10;1.00
28546;DHT22;15749;49.606;8.738;2024-03-08T15:07:39;16.10;1.00
28546;DHT22;15749;49.606;8.738;2024-03-08T15:10:08;16.10;1.00
28546;DHT22;15749;49.606;8.738;2024-03-08T15:12:44;16.10;1.00
28546;DHT22;15749;49.606;8.738;2024-03-08T15:15:18;16.10;1.00
28546;DHT22;15749;49.606;8.738;2024-03-08T15:17:48;16.10;1.00
28546;DHT22;15749;49.606;8.738;2024-03-08T15:20:19;16.10;1.00
28546;DHT22;15749;49.606;8.738;2024-03-08T15:22:57;16.00;1.00
28546;DHT22;15749;49.606;8.738;2024-03-08T15:25:27;16.10;1.00
28546;DHT22;15749;49.606;8.738;2024-03-08T15:28:00;16.10;1.00
28546;DHT22;15749;49.606;8.738;2024-03-08T15:30:32;16.00;1.00
28546;DHT22;15749;49.606;8.738;2024-03-08T15:33:01;16.00;1.00
28546;DHT22;15749;49.606;8.738;2024-03-08T15:35:32;16.10;1.00
28546;DHT22;15749;49.606;8.738;2024-03-08T15:38:02;16.00;1.00
28546;DHT22;15749;49.606;8.738;2024-03-08T15:40:31;16.10;1.00
28546;DHT22;15749;49.606;8.738;2024-03-08T15:43:03;16.00;1.00
28546;DHT22;15749;49.606;8.738;2024-03-08T15:45:32;16.00;1.00
28546;DHT22;15749;49.606;8.738;2024-03-08T15:48:05;16.00;1.00
28546;DHT22;15749;49.606;8.738;2024-03-08T15:50:37;16.00;1.00
28546;DHT22;15749;49.606;8.738;2024-03-08T15:53:06;16.00;1.00
28546;DHT22;15749;49.606;8.738;2024-03-08T15:55:35;16.00;1.00
28546;DHT22;15749;49.606;8.738;2024-03-08T15:58:08;16.00;1.00
28546;DHT22;15749;49.606;8.738;2024-03-08T16:00:41;16.00;1.00
28546;DHT22;15749;49.606;8.738;2024-03-08T16:03:14;16.00;1.00
28546;DHT22;15749;49.606;8.738;2024-03-08T16:05:45;16.00;1.00
28546;DHT22;15749;49.606;8.738;2024-03-08T16:08:17;16.00;1.00
28546;DHT22;15749;49.606;8.738;2024-03-08T16:10:48;16.00;1.00
28546;DHT22;15749;49.606;8.738;2024-03-08T16:13:19;16.00;1.00
28546;DHT22;15749;49.606;8.738;2024-03-08T16:15:51;16.00;1.00
28546;DHT22;15749;49.606;8.738;2024-03-08T16:18:21;16.00;1.00
28546;DHT22;15749;49.606;8.738;2024-03-08T16:20:53;16.00;1.00
28546;DHT22;15749;49.606;8.738;2024-03-08T16:23:24;16.00;1.00